Time;durP1;ratioP1;P1;durP2;ratioP2;P2;SDS_P1;SDS_P2;PMS_P1;PMS_P2;Temp;Humidity;BMP_temperature;BMP_pressure;BME280_temperature;BME280_humidity;BME280_pressure;Samples;Min_cycle;Max_cycle;Signal;HPM_P1;HPM_P2
2024/01/15 00:01:23;;;;;;;23.17;8.90;;;20.90;56.00;;;;;;5078330;27;20086;-50
2024/01/15 00:03:55;;;;;;;17.48;7.72;;;20.80;56.80;;;;;;5111200;27;20103;-48
2024/01/15 00:06:22;;;;;;;20.38;8.35;;;20.70;57.10;;;;;;5106155;27;20091;-49
2024/01/15 00:08:48;;;;;;;18.92;11.57;;;20.50;57.70;;;;;;5109512;27;20068;-46
2024/01/15 00:11:15;;;;;;;27.85;8.75;;;20.50;57.30;;;;;;5108480;27;20079;-47
2024/01/15 00:13:41;;;;;;;31.88;18.58;;;20.40;57.80;;;;;;5108851;27;20110;-46
2024/01/15 00:16:08;;;;;;;40.30;20.98;;;20.40;57.60;;;;;;5128795;27;20158;-44
2024/01/15 00:18:35;;;;;;;50.92;31.60;;;20.30;57.90;;;;;;5129002;27;20084;-48
2024/01/15 00:21:01;;;;;;;77.68;40.72;;;20.20;58.10;;;;;;5093311;27;20071;-47
2024/01/15 00:23:28;;;;;;;21.77;10.80;;;20.20;58.40;;;;;;5127710;27;20110;-44
2024/01/15 00:25:54;;;;;;;21.15;6.15;;;20.10;58.70;;;;;;5094444;27;20165;-51
2024/01/15 00:28:21;;;;;;;21.02;6.47;;;20.00;59.50;;;;;;5110324;27;20101;-45
2024/01/15 00:30:48;;;;;;;28.52;14.35;;;20.00;59.70;;;;;;5093588;27;20076;-44
2024/01/15 00:33:15;;;;;;;50.78;20.05;;;19.90;61.00;;;;;;5110299;27;20123;-47
2024/01/15 00:35:41;;;;;;;40.72;13.88;;;19.80;60.50;;;;;;5110523;27;20534;-48
2024/01/15 00:38:08;;;;;;;43.30;16.73;;;19.70;61.70;;;;;;5110560;27;20166;-48
2024/01/15 00:40:35;;;;;;;60.75;25.58;;;19.60;62.20;;;;;;5108311;27;20076;-55
2024/01/15 00:43:02;;;;;;;61.38;36.75;;;19.50;62.90;;;;;;5127901;27;20076;-48
2024/01/15 00:45:34;;;;;;;59.30;28.20;;;19.40;63.50;;;;;;5111644;27;20090;-46
2024/01/15 00:48:05;;;;;;;49.75;19.17;;;19.30;64.30;;;;;;5128528;27;20064;-47
2024/01/15 00:50:35;;;;;;;40.60;17.60;;;19.10;64.90;;;;;;5107927;27;20076;-48
2024/01/15 00:53:04;;;;;;;41.90;15.35;;;19.00;65.60;;;;;;5128053;27;20121;-46
2024/01/15 00:55:33;;;;;;;30.02;11.00;;;18.70;66.70;;;;;;5107420;27;20082;-47
2024/01/15 00:58:03;;;;;;;30.33;11.07;;;18.60;67.40;;;;;;5108995;27;20082;-46
2024/01/15 01:00:31;;;;;;;36.03;13.93;;;18.40;68.30;;;;;;5125305;27;20080;-50
2024/01/15 01:03:01;;;;;;;37.70;11.73;;;18.20;69.20;;;;;;5107730;27;20133;-51
2024/01/15 01:05:29;;;;;;;47.05;10.65;;;18.00;69.50;;;;;;5112106;27;20227;-49
2024/01/15 01:08:01;;;;;;;38.90;10.23;;;18.00;70.40;;;;;;5108264;27;20083;-50
2024/01/15 01:10:32;;;;;;;36.42;9.93;;;17.90;71.20;;;;;;5127846;27;20101;-50
2024/01/15 01:13:02;;;;;;;28.67;9.20;;;17.80;71.40;;;;;;5108754;27;20095;-53
2024/01/15 01:15:31;;;;;;;36.92;8.95;;;17.60;72.20;;;;;;5093989;27;20124;-46
2024/01/15 01:18:02;;;;;;;32.05;10.10;;;17.40;72.90;;;;;;5128247;27;20556;-50
2024/01/15 01:20:32;;;;;;;35.15;12.65;;;17.20;73.20;;;;;;5109532;27;20111;-46
2024/01/15 01:23:03;;;;;;;36.95;9.95;;;17.10;74.10;;;;;;5106391;27;20094;-46
2024/01/15 01:25:39;;;;;;;36.55;12.48;;;16.90;74.40;;;;;;5109577;27;20075;-47
2024/01/15 01:28:09;;;;;;;34.95;12.32;;;16.80;74.90;;;;;;5094036;27;20178;-49
2024/01/15 01:30:38;;;;;;;41.47;13.15;;;16.60;75.60;;;;;;5110176;27;20121;-49
2024/01/15 01:33:08;;;;;;;49.08;14.07;;;16.50;76.40;;;;;;5109868;27;20100;-44
2024/01/15 01:35:38;;;;;;;74.07;23.45;;;16.40;78.10;;;;;;5105907;27;20083;-47
2024/01/15 01:38:07;;;;;;;79.53;30.83;;;16.40;78.90;;;;;;5106469;27;20122;-53
2024/01/15 01:40:36;;;;;;;88.82;30.48;;;16.30;78.80;;;;;;5128842;27;20099;-47
2024/01/15 01:43:06;;;;;;;89.35;29.88;;;16.30;79.10;;;;;;5108627;27;20100;-50
2024/01/15 01:45:34;;;;;;;78.13;25.98;;;16.20;79.40;;;;;;5110107;27;20167;-46
2024/01/15 01:48:03;;;;;;;60.83;20.38;;;16.10;79.60;;;;;;5109031;27;20072;-47
2024/01/15 01:50:34;;;;;;;67.43;22.33;;;16.00;80.40;;;;;;5109520;27;20076;-46
2024/01/15 01:53:06;;;;;;;43.85;16.58;;;15.90;80.60;;;;;;5128491;27;20569;-43
2024/01/15 01:55:36;;;;;;;54.22;17.02;;;15.90;81.80;;;;;;5092589;27;20520;-49
2024/01/15 01:58:07;;;;;;;49.90;14.07;;;15.80;81.70;;;;;;5110293;27;20071;-45
2024/01/15 02:00:37;;;;;;;67.88;16.55;;;15.90;81.80;;;;;;5109222;27;20074;-45
2024/01/15 02:03:08;;;;;;;44.22;15.55;;;15.80;82.30;;;;;;5109217;27;20158;-48
2024/01/15 02:05:38;;;;;;;44.00;14.40;;;15.70;82.30;;;;;;5108984;27;20083;-49
2024/01/15 02:08:07;;;;;;;56.05;22.30;;;15.60;82.50;;;;;;5109682;27;20482;-45
2024/01/15 02:10:36;;;;;;;48.00;14.45;;;15.60;82.70;;;;;;5109575;27;20075;-49
2024/01/15 02:13:08;;;;;;;54.28;14.45;;;15.50;83.00;;;;;;5128279;27;20105;-48
2024/01/15 02:15:38;;;;;;;55.75;14.57;;;15.40;83.50;;;;;;5107078;27;20079;-45
2024/01/15 02:18:14;;;;;;;62.40;18.23;;;15.40;83.90;;;;;;5126002;27;20108;-51
2024/01/15 02:20:45;;;;;;;56.47;16.80;;;15.30;84.60;;;;;;5107091;27;20086;-47
2024/01/15 02:23:21;;;;;;;60.00;17.60;;;15.20;85.00;;;;;;5108454;27;20079;-54
2024/01/15 02:25:54;;;;;;;53.47;21.63;;;15.30;85.30;;;;;;5092936;27;20126;-50
2024/01/15 02:28:24;;;;;;;54.92;22.20;;;15.30;85.20;;;;;;5127602;27;20068;-46
2024/01/15 02:30:55;;;;;;;64.65;23.55;;;15.30;85.50;;;;;;5126770;27;20631;-46
2024/01/15 02:33:23;;;;;;;61.58;22.73;;;15.30;85.30;;;;;;5091057;27;20107;-47
2024/01/15 02:35:54;;;;;;;55.65;22.48;;;15.30;84.20;;;;;;5103002;27;20075;-48
2024/01/15 02:38:23;;;;;;;69.38;22.38;;;15.40;83.80;;;;;;5108731;27;20136;-49
2024/01/15 02:40:55;;;;;;;61.28;21.30;;;15.40;83.60;;;;;;5107053;27;20072;-46
2024/01/15 02:43:24;;;;;;;51.65;22.05;;;15.40;83.60;;;;;;5125991;27;20086;-50
2024/01/15 02:45:52;;;;;;;55.35;19.42;;;15.30;83.30;;;;;;5109528;28;20099;-47
2024/01/15 02:48:20;;;;;;;50.33;20.15;;;15.20;83.40;;;;;;5109023;28;20140;-50
2024/01/15 02:50:53;;;;;;;62.95;20.38;;;15.20;83.60;;;;;;5125639;28;20074;-48
2024/01/15 02:53:23;;;;;;;60.42;19.65;;;15.10;83.40;;;;;;5086637;28;20120;-48
2024/01/15 02:55:52;;;;;;;60.20;19.48;;;15.00;83.40;;;;;;5105608;28;20065;-49
2024/01/15 02:58:28;;;;;;;52.22;18.90;;;15.00;83.70;;;;;;5104462;28;20084;-48
2024/01/15 03:00:57;;;;;;;57.42;19.08;;;15.00;83.60;;;;;;5105126;28;20165;-52
2024/01/15 03:03:24;;;;;;;46.72;18.15;;;15.00;83.60;;;;;;5104565;28;20129;-50
2024/01/15 03:05:51;;;;;;;38.80;16.85;;;14.90;83.70;;;;;;5101523;28;20083;-45
2024/01/15 03:08:18;;;;;;;57.38;18.40;;;14.80;83.80;;;;;;5104049;28;20103;-47
2024/01/15 03:10:47;;;;;;;52.92;20.52;;;14.80;84.30;;;;;;5105007;28;20553;-54
2024/01/15 03:13:14;;;;;;;55.15;19.17;;;14.80;85.10;;;;;;5105958;28;20096;-46
2024/01/15 03:15:43;;;;;;;43.17;19.65;;;14.80;84.80;;;;;;5106010;28;20170;-51
2024/01/15 03:18:11;;;;;;;44.28;18.17;;;14.70;84.30;;;;;;5105247;28;20072;-48
2024/01/15 03:20:38;;;;;;;32.60;13.80;;;14.60;84.00;;;;;;5104349;28;20075;-44
2024/01/15 03:23:05;;;;;;;41.60;14.77;;;14.60;83.60;;;;;;5104789;28;20076;-48
2024/01/15 03:25:33;;;;;;;45.45;15.68;;;14.60;83.10;;;;;;5104601;28;20068;-46
2024/01/15 03:28:01;;;;;;;34.75;15.98;;;14.50;82.30;;;;;;5105225;28;20523;-44
2024/01/15 03:30:31;;;;;;;38.47;16.50;;;14.60;82.30;;;;;;5104532;28;20079;-44
2024/01/15 03:33:00;;;;;;;46.03;17.73;;;14.60;81.30;;;;;;5087118;28;20454;-45
2024/01/15 03:35:29;;;;;;;44.50;19.23;;;14.60;81.00;;;;;;5104013;28;20079;-44
2024/01/15 03:37:57;;;;;;;35.60;19.23;;;14.60;80.60;;;;;;5104134;28;20079;-51
2024/01/15 03:40:26;;;;;;;44.05;19.20;;;14.60;80.60;;;;;;5103822;28;20113;-46
2024/01/15 03:42:54;;;;;;;47.33;21.10;;;14.60;80.70;;;;;;5105502;28;20117;-50
2024/01/15 03:45:20;;;;;;;41.92;21.63;;;14.50;81.20;;;;;;5103836;28;20086;-55
2024/01/15 03:47:48;;;;;;;43.17;19.83;;;14.40;82.20;;;;;;5107677;28;20078;-50
2024/01/15 03:50:17;;;;;;;49.88;19.15;;;14.30;82.90;;;;;;5105540;28;20080;-50
2024/01/15 03:52:45;;;;;;;40.13;19.02;;;14.20;84.40;;;;;;5106831;28;20127;-54
2024/01/15 03:55:12;;;;;;;39.92;20.08;;;14.20;85.10;;;;;;5088647;28;20122;-48
2024/01/15 03:57:41;;;;;;;44.30;19.73;;;14.10;86.10;;;;;;5108153;28;20097;-53
2024/01/15 04:00:09;;;;;;;47.17;20.30;;;14.10;86.60;;;;;;5106627;28;20534;-59
2024/01/15 04:02:36;;;;;;;48.42;20.17;;;14.10;87.00;;;;;;5106211;28;20102;-58
2024/01/15 04:05:03;;;;;;;38.72;21.23;;;13.90;87.70;;;;;;5105435;28;20182;-46
2024/01/15 04:07:30;;;;;;;41.05;21.33;;;13.90;87.60;;;;;;5107687;28;20175;-49
2024/01/15 04:09:56;;;;;;;62.15;31.38;;;13.90;88.40;;;;;;5105002;28;20594;-48
2024/01/15 04:12:23;;;;;;;52.75;29.55;;;13.90;87.60;;;;;;5106801;28;20103;-49
2024/01/15 04:14:51;;;;;;;46.85;25.17;;;13.80;87.60;;;;;;5109551;27;20549;-46
2024/01/15 04:17:18;;;;;;;44.67;24.08;;;13.80;88.10;;;;;;5109420;28;20105;-50
2024/01/15 04:19:46;;;;;;;51.53;23.42;;;13.80;88.40;;;;;;5107981;28;20804;-48
2024/01/15 04:22:13;;;;;;;47.40;25.20;;;13.70;88.60;;;;;;5106519;28;20079;-50
2024/01/15 04:24:44;;;;;;;49.67;24.17;;;13.70;88.80;;;;;;5107840;28;20141;-48
2024/01/15 04:27:11;;;;;;;53.53;25.40;;;13.60;89.20;;;;;;5109486;28;20096;-46
2024/01/15 04:29:41;;;;;;;45.85;25.80;;;13.60;89.60;;;;;;5106587;28;20534;-47
2024/01/15 04:32:08;;;;;;;42.40;24.10;;;13.60;90.20;;;;;;5107884;28;20529;-45
2024/01/15 04:34:34;;;;;;;46.13;25.73;;;13.50;90.30;;;;;;5106763;28;20072;-48
2024/01/15 04:37:00;;;;;;;43.08;24.50;;;13.40;90.50;;;;;;5109013;28;20068;-50
2024/01/15 04:39:27;;;;;;;55.97;26.88;;;13.40;90.60;;;;;;5107282;28;20130;-46
2024/01/15 04:41:54;;;;;;;56.10;25.42;;;13.30;90.70;;;;;;5107798;28;20083;-51
2024/01/15 04:44:20;;;;;;;58.90;27.60;;;13.20;90.80;;;;;;5105537;28;20076;-52
2024/01/15 04:46:47;;;;;;;54.30;26.45;;;13.20;91.10;;;;;;5107161;28;20121;-47
2024/01/15 04:49:13;;;;;;;57.10;26.15;;;13.10;91.20;;;;;;5107934;28;20508;-51
2024/01/15 04:51:40;;;;;;;53.97;27.13;;;13.10;91.50;;;;;;5110853;27;20108;-52
2024/01/15 04:54:06;;;;;;;63.28;29.73;;;13.00;91.80;;;;;;5127042;27;20080;-55
2024/01/15 04:56:33;;;;;;;65.03;28.60;;;13.00;91.90;;;;;;5127302;27;20553;-45
2024/01/15 04:58:59;;;;;;;54.10;29.00;;;13.80;91.30;;;;;;5124407;27;20076;-47
2024/01/15 05:01:29;;;;;;;63.78;28.67;;;14.10;90.30;;;;;;5125520;27;20075;-52
2024/01/15 05:03:56;;;;;;;66.80;28.75;;;14.40;89.40;;;;;;5126376;27;20114;-50
2024/01/15 05:06:22;;;;;;;57.10;25.95;;;14.60;88.60;;;;;;5110202;27;20068;-47
2024/01/15 05:08:49;;;;;;;64.40;28.17;;;14.80;87.60;;;;;;5125543;27;21345;-58
2024/01/15 05:11:15;;;;;;;62.63;25.90;;;14.70;86.80;;;;;;5127019;27;20132;-52
2024/01/15 05:13:42;;;;;;;56.17;29.95;;;15.00;85.90;;;;;;5126556;27;20099;-47
2024/01/15 05:16:08;;;;;;;61.33;34.65;;;15.00;85.10;;;;;;5127054;27;20502;-51
2024/01/15 05:18:37;;;;;;;57.72;31.33;;;14.90;85.20;;;;;;5125217;27;20079;-51
2024/01/15 05:21:04;;;;;;;56.40;27.35;;;14.80;85.60;;;;;;5125060;27;20441;-53
2024/01/15 05:23:32;;;;;;;49.63;26.20;;;14.70;86.10;;;;;;5124547;27;20068;-46
2024/01/15 05:25:58;;;;;;;60.13;27.75;;;14.50;86.60;;;;;;5127729;27;20105;-52
2024/01/15 05:28:25;;;;;;;44.45;25.95;;;14.60;87.10;;;;;;5107451;27;20084;-50
2024/01/15 05:30:52;;;;;;;52.25;24.80;;;14.60;87.30;;;;;;5127464;27;20471;-48
2024/01/15 05:33:18;;;;;;;52.53;25.75;;;14.50;87.20;;;;;;5127486;27;20632;-53
2024/01/15 05:35:45;;;;;;;44.60;24.05;;;14.40;88.10;;;;;;5127873;27;20083;-50
2024/01/15 05:38:11;;;;;;;48.58;24.48;;;14.50;88.30;;;;;;5129253;27;20526;-53
2024/01/15 05:40:38;;;;;;;48.05;25.08;;;14.40;88.50;;;;;;5127571;27;20485;-50
2024/01/15 05:43:05;;;;;;;42.85;25.92;;;14.40;89.20;;;;;;5108558;27;20079;-49
2024/01/15 05:45:31;;;;;;;43.33;26.92;;;14.40;89.40;;;;;;5107817;27;20075;-55
2024/01/15 05:47:58;;;;;;;51.05;27.48;;;14.30;89.60;;;;;;5109242;27;20068;-53
2024/01/15 05:50:25;;;;;;;41.95;25.65;;;14.40;89.20;;;;;;5108792;27;20084;-53
2024/01/15 05:52:52;;;;;;;45.90;26.02;;;14.20;89.70;;;;;;5104994;28;20112;-48
2024/01/15 05:55:20;;;;;;;49.22;25.45;;;14.00;90.20;;;;;;5106780;28;20083;-52
2024/01/15 05:57:47;;;;;;;43.72;26.00;;;14.00;90.90;;;;;;5107047;28;20087;-58
2024/01/15 06:00:14;;;;;;;47.22;28.13;;;14.00;90.80;;;;;;5105825;28;20083;-47
2024/01/15 06:02:41;;;;;;;50.60;30.60;;;14.00;90.80;;;;;;5104770;28;20080;-47
2024/01/15 06:05:08;;;;;;;52.42;31.65;;;14.10;90.40;;;;;;5105206;28;20086;-50
2024/01/15 06:07:36;;;;;;;56.50;36.55;;;14.00;90.30;;;;;;5105830;28;20079;-51
2024/01/15 06:10:04;;;;;;;60.38;31.23;;;13.90;90.90;;;;;;5105213;28;20164;-47
2024/01/15 06:12:32;;;;;;;60.30;34.05;;;13.60;90.90;;;;;;5104064;28;20092;-48
2024/01/15 06:14:58;;;;;;;66.47;32.58;;;13.40;91.50;;;;;;5105140;28;20608;-52
2024/01/15 06:17:25;;;;;;;61.92;34.17;;;13.20;92.00;;;;;;5105640;28;20173;-48
2024/01/15 06:19:52;;;;;;;59.60;33.45;;;13.10;92.80;;;;;;5105671;28;20068;-47
2024/01/15 06:22:18;;;;;;;56.80;32.90;;;13.20;92.50;;;;;;5105070;28;20076;-47
2024/01/15 06:24:45;;;;;;;67.75;31.95;;;13.20;92.50;;;;;;5106296;28;20076;-46
2024/01/15 06:27:11;;;;;;;57.15;31.60;;;13.30;92.00;;;;;;5106277;28;20099;-56
2024/01/15 06:29:39;;;;;;;56.55;32.33;;;13.20;92.20;;;;;;5103970;28;20072;-50
2024/01/15 06:32:05;;;;;;;57.38;33.08;;;13.10;92.60;;;;;;5104568;28;20534;-48
2024/01/15 06:34:32;;;;;;;53.63;31.17;;;13.10;92.30;;;;;;5103162;28;20456;-53
2024/01/15 06:36:58;;;;;;;64.30;35.65;;;13.20;92.50;;;;;;5106013;28;20127;-52
2024/01/15 06:39:25;;;;;;;59.42;35.25;;;13.10;92.60;;;;;;5104697;28;20076;-46
2024/01/15 06:41:51;;;;;;;77.25;40.05;;;13.10;92.40;;;;;;5104743;28;20083;-45
2024/01/15 06:44:21;;;;;;;75.18;43.58;;;13.10;92.10;;;;;;5098219;28;20088;-46
2024/01/15 06:46:48;;;;;;;70.93;43.85;;;13.00;92.10;;;;;;5102672;28;20076;-49
2024/01/15 06:49:14;;;;;;;73.72;44.30;;;13.00;92.20;;;;;;5102753;28;20115;-47
2024/01/15 06:51:41;;;;;;;72.18;45.75;;;12.90;92.50;;;;;;5106403;28;20490;-54
2024/01/15 06:54:08;;;;;;;87.25;47.65;;;12.70;92.40;;;;;;5123952;28;20099;-48
2024/01/15 06:56:35;;;;;;;73.80;45.63;;;12.50;92.80;;;;;;5126013;28;20076;-47
2024/01/15 06:59:02;;;;;;;98.88;61.35;;;12.50;93.10;;;;;;5105744;28;20111;-50
2024/01/15 07:01:29;;;;;;;83.00;45.92;;;12.50;92.90;;;;;;5106518;28;20076;-51
2024/01/15 07:03:56;;;;;;;80.07;45.83;;;12.60;92.30;;;;;;5108755;28;20111;-47
2024/01/15 07:06:22;;;;;;;83.28;43.60;;;12.60;92.10;;;;;;5108147;28;20116;-48
2024/01/15 07:08:50;;;;;;;72.10;40.50;;;12.70;91.90;;;;;;5124368;28;20530;-49
2024/01/15 07:11:16;;;;;;;67.57;40.00;;;12.80;91.80;;;;;;5104663;28;20556;-53
2024/01/15 07:13:43;;;;;;;66.55;37.20;;;12.80;91.60;;;;;;5104428;28;20144;-47
2024/01/15 07:16:09;;;;;;;61.88;36.80;;;12.70;91.70;;;;;;5108102;28;20184;-51
2024/01/15 07:18:36;;;;;;;70.07;37.58;;;12.70;91.50;;;;;;5106451;28;20115;-52
2024/01/15 07:21:03;;;;;;;76.75;37.35;;;12.50;91.90;;;;;;5124741;28;20444;-46
2024/01/15 07:23:31;;;;;;;63.03;36.92;;;12.50;92.10;;;;;;5107039;28;20114;-51
2024/01/15 07:25:57;;;;;;;92.45;41.00;;;12.40;92.30;;;;;;5111255;27;20079;-48
2024/01/15 07:28:24;;;;;;;79.90;41.70;;;12.40;92.40;;;;;;5109541;27;20737;-47
2024/01/15 07:30:52;;;;;;;78.35;40.75;;;12.50;92.30;;;;;;5109666;27;20101;-53
2024/01/15 07:33:18;;;;;;;72.15;41.08;;;12.40;92.50;;;;;;5129351;27;20450;-55
2024/01/15 07:35:45;;;;;;;72.13;41.45;;;12.40;92.70;;;;;;5112865;27;20168;-48
2024/01/15 07:38:12;;;;;;;80.13;42.17;;;12.20;92.90;;;;;;5092871;27;20088;-47
2024/01/15 07:40:38;;;;;;;79.85;44.78;;;12.10;93.30;;;;;;5110622;27;20180;-52
2024/01/15 07:43:05;;;;;;;71.93;39.65;;;12.00;93.50;;;;;;5110348;27;20545;-53
2024/01/15 07:45:32;;;;;;;81.00;44.17;;;12.00;93.20;;;;;;5110747;27;20590;-49
2024/01/15 07:47:59;;;;;;;74.75;43.40;;;12.00;93.50;;;;;;5112063;27;20113;-49
2024/01/15 07:50:26;;;;;;;86.00;43.53;;;11.90;93.40;;;;;;5110355;27;20545;-48
2024/01/15 07:52:53;;;;;;;81.15;44.40;;;11.90;93.50;;;;;;5128089;27;20200;-50
2024/01/15 07:55:19;;;;;;;76.80;41.83;;;11.80;93.50;;;;;;5129361;27;20137;-47
2024/01/15 07:57:47;;;;;;;70.95;42.80;;;11.70;93.90;;;;;;5108300;27;20171;-54
2024/01/15 08:00:14;;;;;;;84.28;45.00;;;11.60;94.10;;;;;;5112604;27;20083;-48
2024/01/15 08:02:41;;;;;;;77.38;43.15;;;11.70;93.90;;;;;;5110888;27;20071;-47
2024/01/15 08:05:08;;;;;;;73.50;39.97;;;11.70;93.70;;;;;;5109939;27;20079;-47
2024/01/15 08:07:34;;;;;;;69.07;41.97;;;11.70;94.20;;;;;;5109805;27;20568;-48
2024/01/15 08:10:01;;;;;;;74.97;40.88;;;11.60;94.20;;;;;;5108473;27;20071;-49
2024/01/15 08:12:27;;;;;;;76.47;40.55;;;11.60;93.90;;;;;;5109042;27;20091;-55
2024/01/15 08:14:54;;;;;;;70.78;40.47;;;11.60;94.10;;;;;;5130430;27;20075;-47
2024/01/15 08:17:20;;;;;;;77.93;40.72;;;11.70;93.80;;;;;;5127696;27;20071;-46
2024/01/15 08:19:47;;;;;;;67.25;39.80;;;11.60;93.80;;;;;;5128673;27;20080;-46
2024/01/15 08:22:14;;;;;;;81.40;40.83;;;11.50;94.10;;;;;;5129876;27;20068;-51
2024/01/15 08:24:41;;;;;;;80.25;39.38;;;11.50;94.20;;;;;;5109402;27;20087;-47
2024/01/15 08:27:07;;;;;;;67.32;37.38;;;11.50;94.20;;;;;;5110663;27;20469;-46
2024/01/15 08:29:34;;;;;;;71.22;40.30;;;11.50;94.20;;;;;;5110803;27;20075;-50
2024/01/15 08:32:01;;;;;;;73.68;37.97;;;11.50;94.20;;;;;;5107750;27;20345;-52
2024/01/15 08:34:27;;;;;;;69.00;37.88;;;11.40;94.10;;;;;;5108886;27;20114;-47
2024/01/15 08:36:54;;;;;;;66.72;37.03;;;11.40;94.30;;;;;;5111228;27;20104;-47
2024/01/15 08:39:21;;;;;;;71.95;39.67;;;11.30;94.70;;;;;;5110878;27;20079;-48
2024/01/15 08:41:47;;;;;;;77.03;41.55;;;11.40;94.90;;;;;;5110721;27;20090;-50
2024/01/15 08:44:14;;;;;;;68.07;37.58;;;11.20;94.90;;;;;;5127230;27;20566;-48
2024/01/15 08:46:41;;;;;;;77.88;37.47;;;11.30;95.00;;;;;;5108574;27;20127;-49
2024/01/15 08:49:08;;;;;;;72.82;39.10;;;11.20;94.80;;;;;;5105431;27;20567;-49
2024/01/15 08:51:34;;;;;;;71.38;37.78;;;11.20;94.80;;;;;;5127477;27;20676;-47
2024/01/15 08:54:01;;;;;;;67.20;38.30;;;11.20;94.90;;;;;;5108318;27;20119;-48
2024/01/15 08:56:28;;;;;;;63.53;37.70;;;11.10;94.80;;;;;;5107618;27;20107;-47
2024/01/15 08:58:55;;;;;;;65.93;36.60;;;11.10;95.20;;;;;;5130057;27;20068;-55
2024/01/15 09:01:23;;;;;;;64.43;36.47;;;11.00;95.50;;;;;;5110743;27;20103;-47
2024/01/15 09:03:49;;;;;;;73.20;38.75;;;11.10;95.40;;;;;;5110720;27;20072;-50
2024/01/15 09:06:16;;;;;;;73.63;37.33;;;11.00;95.20;;;;;;5110660;27;20083;-47
2024/01/15 09:08:43;;;;;;;62.13;36.50;;;11.10;95.30;;;;;;5107640;27;20087;-49
2024/01/15 09:11:10;;;;;;;67.13;37.40;;;11.00;95.60;;;;;;5110010;27;20072;-47
2024/01/15 09:13:37;;;;;;;75.28;39.53;;;10.90;95.70;;;;;;5109831;27;20100;-55
2024/01/15 09:16:04;;;;;;;70.00;38.70;;;10.90;95.70;;;;;;5109798;27;20578;-49
2024/01/15 09:18:31;;;;;;;72.85;38.53;;;11.00;95.70;;;;;;5108919;27;20539;-46
2024/01/15 09:21:00;;;;;;;67.72;39.85;;;10.80;95.80;;;;;;5109350;27;20071;-51
2024/01/15 09:23:26;;;;;;;79.78;40.10;;;10.70;96.00;;;;;;5109329;27;20597;-52
2024/01/15 09:25:53;;;;;;;77.35;41.10;;;10.70;96.20;;;;;;5107745;27;20159;-48
2024/01/15 09:28:19;;;;;;;72.55;39.67;;;10.70;96.20;;;;;;5129916;27;20087;-46
2024/01/15 09:30:47;;;;;;;73.38;38.13;;;10.70;96.20;;;;;;5106150;27;20183;-48
2024/01/15 09:33:13;;;;;;;66.47;37.88;;;10.50;96.30;;;;;;5108178;27;20163;-46
2024/01/15 09:35:40;;;;;;;75.97;39.72;;;10.50;96.60;;;;;;5127035;27;20079;-48
2024/01/15 09:38:07;;;;;;;70.55;37.47;;;10.50;97.00;;;;;;5108373;27;20080;-48
2024/01/15 09:40:34;;;;;;;81.25;39.33;;;10.60;96.80;;;;;;5125663;27;20072;-47
2024/01/15 09:43:02;;;;;;;71.38;36.47;;;10.50;96.80;;;;;;5108898;27;20140;-50
2024/01/15 09:45:29;;;;;;;70.28;39.63;;;10.60;96.90;;;;;;5108796;27;20085;-48
2024/01/15 09:47:56;;;;;;;70.95;40.28;;;10.50;96.70;;;;;;5106797;27;20094;-52
2024/01/15 09:50:23;;;;;;;74.13;39.00;;;10.40;97.00;;;;;;5108385;27;20092;-47
2024/01/15 09:52:50;;;;;;;71.00;38.33;;;10.30;97.10;;;;;;5104898;27;20202;-48
2024/01/15 09:55:18;;;;;;;68.07;37.38;;;10.30;97.40;;;;;;5126380;27;20072;-52
2024/01/15 09:57:46;;;;;;;69.55;36.65;;;10.30;97.70;;;;;;5108270;27;20105;-48
2024/01/15 10:00:13;;;;;;;62.30;36.17;;;10.40;97.50;;;;;;5109025;27;20071;-52
2024/01/15 10:02:40;;;;;;;73.68;38.15;;;10.50;97.00;;;;;;5108495;27;20105;-51
2024/01/15 10:05:08;;;;;;;67.07;35.60;;;10.60;96.60;;;;;;5124594;27;20479;-48
2024/01/15 10:07:37;;;;;;;64.13;37.67;;;10.50;96.50;;;;;;5123262;27;20156;-53
2024/01/15 10:10:04;;;;;;;68.38;36.88;;;10.40;96.60;;;;;;5093142;27;20104;-48
2024/01/15 10:12:31;;;;;;;72.78;36.05;;;10.50;96.60;;;;;;5108241;27;20096;-54
2024/01/15 10:14:59;;;;;;;66.65;38.22;;;10.40;96.60;;;;;;5106739;27;20436;-48
2024/01/15 10:17:28;;;;;;;67.13;36.38;;;10.40;96.70;;;;;;5108369;27;20084;-50
2024/01/15 10:19:54;;;;;;;60.60;36.92;;;10.40;96.80;;;;;;5108149;27;20072;-49
2024/01/15 10:22:21;;;;;;;80.78;40.22;;;10.40;96.60;;;;;;5107172;27;20075;-45
2024/01/15 10:24:47;;;;;;;72.45;38.95;;;10.30;96.70;;;;;;5105273;27;20083;-47
2024/01/15 10:27:14;;;;;;;78.28;38.75;;;10.10;97.20;;;;;;5107083;27;20082;-52
2024/01/15 10:29:42;;;;;;;64.40;37.67;;;10.10;97.40;;;;;;5125099;27;20099;-52
2024/01/15 10:32:09;;;;;;;79.75;38.03;;;10.10;97.40;;;;;;5125976;27;20064;-51
2024/01/15 10:34:40;;;;;;;81.13;39.30;;;10.10;97.30;;;;;;5104537;27;20076;-49
2024/01/15 10:37:10;;;;;;;79.03;41.33;;;9.90;97.50;;;;;;5124213;27;20087;-53
2024/01/15 10:39:37;;;;;;;87.30;43.50;;;9.90;97.50;;;;;;5126580;27;20068;-59
2024/01/15 10:42:04;;;;;;;83.97;43.25;;;9.80;97.30;;;;;;5126161;27;20160;-49
2024/01/15 10:44:31;;;;;;;79.03;42.38;;;9.70;97.50;;;;;;5108983;27;20352;-52
2024/01/15 10:46:58;;;;;;;82.40;42.45;;;9.70;97.90;;;;;;5106305;28;20078;-52
2024/01/15 10:49:29;;;;;;;74.57;43.83;;;9.70;97.60;;;;;;5123281;28;20071;-53
2024/01/15 10:51:56;;;;;;;87.50;45.63;;;9.70;97.80;;;;;;5106726;28;20198;-56
2024/01/15 10:54:23;;;;;;;89.05;46.45;;;9.90;97.90;;;;;;5108133;28;20107;-56
2024/01/15 10:56:53;;;;;;;100.28;51.90;;;9.90;98.10;;;;;;5108148;28;20174;-50
2024/01/15 10:59:23;;;;;;;103.15;49.92;;;10.00;97.70;;;;;;5109717;28;20075;-53
2024/01/15 11:01:53;;;;;;;96.47;52.45;;;9.90;97.60;;;;;;5112110;27;20163;-49
2024/01/15 11:04:21;;;;;;;100.65;54.88;;;9.90;97.40;;;;;;5110239;27;20088;-48
2024/01/15 11:06:53;;;;;;;97.80;54.65;;;9.90;97.70;;;;;;5112593;27;20083;-48
2024/01/15 11:09:20;;;;;;;103.35;56.60;;;9.90;97.60;;;;;;5111262;27;20676;-50
2024/01/15 11:11:49;;;;;;;113.20;59.38;;;9.90;97.90;;;;;;5109621;27;20110;-56
2024/01/15 11:14:57;;;;;;;103.88;57.33;;;10.00;97.70;;;;;;5112898;27;20115;-50
2024/01/15 11:17:23;;;;;;;113.28;58.95;;;10.00;97.40;;;;;;5111104;27;20103;-49
2024/01/15 11:19:51;;;;;;;100.97;58.15;;;9.90;97.30;;;;;;5111203;27;20079;-45
2024/01/15 11:22:49;;;;;;;112.20;59.47;;;9.90;97.60;;;;;;5111511;27;20075;-50
2024/01/15 11:25:18;;;;;;;122.03;59.92;;;9.80;97.70;;;;;;5129530;27;20154;-49
2024/01/15 11:27:52;;;;;;;114.95;62.35;;;9.90;97.70;;;;;;5110447;27;20113;-52
2024/01/15 11:30:22;;;;;;;118.00;61.95;;;9.90;97.80;;;;;;5111278;27;20425;-52
2024/01/15 11:32:49;;;;;;;121.05;64.32;;;9.70;98.10;;;;;;5109625;27;20114;-46
2024/01/15 11:35:16;;;;;;;132.57;66.35;;;9.70;98.40;;;;;;5112820;27;20087;-46
2024/01/15 11:37:52;;;;;;;113.13;64.25;;;9.50;98.40;;;;;;5110347;27;20099;-45
2024/01/15 11:40:37;;;;;;;121.00;64.20;;;9.50;98.70;;;;;;5126999;27;20079;-45
2024/01/15 11:43:05;;;;;;;120.63;62.22;;;9.50;98.80;;;;;;5110999;27;20087;-47
2024/01/15 11:45:33;;;;;;;114.70;63.90;;;9.50;98.90;;;;;;5110627;27;20171;-45
2024/01/15 11:48:35;;;;;;;113.78;64.47;;;9.40;98.80;;;;;;5111514;27;20121;-47
2024/01/15 11:51:03;;;;;;;117.95;63.00;;;9.50;99.00;;;;;;5090676;27;20102;-45
2024/01/15 11:53:47;;;;;;;131.52;70.18;;;9.60;98.80;;;;;;5107248;28;20111;-45
2024/01/15 11:56:18;;;;;;;154.25;72.90;;;9.60;98.50;;;;;;5103662;28;20107;-46
2024/01/15 11:58:45;;;;;;;127.20;70.20;;;9.40;98.90;;;;;;5108458;28;20085;-47
2024/01/15 12:01:12;;;;;;;135.15;71.55;;;9.30;99.20;;;;;;5107692;28;20170;-47
2024/01/15 12:03:39;;;;;;;135.52;75.88;;;9.20;99.70;;;;;;5108325;28;20411;-56
2024/01/15 12:06:11;;;;;;;129.80;74.10;;;9.20;99.50;;;;;;5107254;28;20660;-53
2024/01/15 12:08:38;;;;;;;122.50;71.25;;;9.30;99.60;;;;;;5105833;28;20604;-55
2024/01/15 12:11:14;;;;;;;132.20;71.68;;;9.40;99.40;;;;;;5106280;28;20098;-49
2024/01/15 12:13:40;;;;;;;135.95;70.55;;;9.50;99.20;;;;;;5104593;28;20100;-51
2024/01/15 12:16:07;;;;;;;147.07;72.53;;;9.40;99.30;;;;;;5105782;28;20538;-46
2024/01/15 12:18:34;;;;;;;127.72;67.90;;;9.50;99.30;;;;;;5105192;28;20419;-50
2024/01/15 12:21:00;;;;;;;122.20;67.13;;;9.50;99.10;;;;;;5105494;28;20159;-45
2024/01/15 12:23:27;;;;;;;124.40;66.65;;;9.50;99.10;;;;;;5107168;28;20198;-45
2024/01/15 12:25:53;;;;;;;124.65;71.10;;;9.40;99.00;;;;;;5108242;28;20084;-49
2024/01/15 12:28:20;;;;;;;126.60;69.68;;;9.30;99.30;;;;;;5106987;28;20129;-45
2024/01/15 12:30:49;;;;;;;134.35;72.13;;;9.30;99.80;;;;;;5106090;28;20081;-46
2024/01/15 12:33:17;;;;;;;155.57;74.22;;;9.40;99.60;;;;;;5106266;28;20104;-48